createdAt,value
2022-09-26T00:01:11.416Z,13.2
2022-09-26T00:03:39.632Z,13.2
2022-09-26T00:06:07.920Z,13.2
2022-09-26T00:07:22.024Z,13.2
2022-09-26T00:08:32.924Z,13.2
2022-09-26T00:10:57.921Z,13.1
2022-09-26T00:12:12.032Z,13.1
2022-09-26T00:14:40.298Z,13.1
2022-09-26T00:15:54.385Z,13.1
2022-09-26T00:17:08.528Z,13.2
2022-09-26T00:19:36.826Z,13.1
2022-09-26T00:20:50.940Z,13.1
2022-09-26T00:23:12.690Z,13.1
2022-09-26T00:24:26.825Z,13.1
2022-09-26T00:26:55.035Z,13.1
2022-09-26T00:28:09.205Z,13.1
2022-09-26T00:31:51.548Z,13.1
2022-09-26T00:33:05.676Z,13.1
2022-09-26T00:34:19.823Z,13.1
2022-09-26T00:35:30.665Z,13.1
2022-09-26T00:36:41.588Z,13.1
2022-09-26T00:37:55.720Z,13.1
2022-09-26T00:40:23.936Z,13.1
2022-09-26T00:42:52.243Z,13.1
2022-09-26T00:44:06.355Z,13.1
2022-09-26T00:45:20.473Z,13.1
2022-09-26T00:46:34.556Z,13
2022-09-26T00:47:48.721Z,13
2022-09-26T00:48:59.583Z,13
2022-09-26T00:50:09.988Z,13
2022-09-26T00:51:24.165Z,13
2022-09-26T00:52:38.289Z,13
2022-09-26T00:55:06.549Z,13
2022-09-26T00:56:20.662Z,13
2022-09-26T00:58:48.907Z,13
2022-09-26T01:00:03.024Z,13
2022-09-26T01:01:17.177Z,12.9
2022-09-26T01:02:28.008Z,12.9
2022-09-26T01:03:38.908Z,12.9
2022-09-26T01:07:21.250Z,12.9
2022-09-26T01:08:35.421Z,12.9
2022-09-26T01:09:49.528Z,12.9
2022-09-26T01:12:17.764Z,12.9
2022-09-26T01:13:31.953Z,12.9
2022-09-26T01:14:46.018Z,12.9
2022-09-26T01:15:56.944Z,12.9
2022-09-26T01:17:07.749Z,12.9
2022-09-26T01:19:36.007Z,12.9
2022-09-26T01:20:50.140Z,12.9
2022-09-26T01:23:18.454Z,12.9
2022-09-26T01:25:46.680Z,12.9
2022-09-26T01:28:14.967Z,12.9
2022-09-26T01:31:50.812Z,12.9
2022-09-26T01:33:04.905Z,12.9
2022-09-26T01:34:19.048Z,12.8
2022-09-26T01:35:33.159Z,12.8
2022-09-26T01:36:47.330Z,12.8
2022-09-26T01:38:01.420Z,12.8
2022-09-26T01:39:15.531Z,12.8
2022-09-26T01:40:29.674Z,12.8
2022-09-26T01:42:54.656Z,12.9
2022-09-26T01:44:05.523Z,12.8
2022-09-26T01:45:19.681Z,12.8
2022-09-26T01:47:47.904Z,12.8
2022-09-26T01:49:02.084Z,12.8
2022-09-26T01:50:16.157Z,12.8
2022-09-26T01:51:30.315Z,12.8
2022-09-26T01:52:44.437Z,12.8
2022-09-26T01:55:12.716Z,12.8
2022-09-26T01:56:23.104Z,12.8
2022-09-26T01:57:34.009Z,12.7
2022-09-26T02:01:16.381Z,12.7
2022-09-26T02:02:30.515Z,12.7
2022-09-26T02:03:44.608Z,12.8
2022-09-26T02:04:58.790Z,12.8
2022-09-26T02:06:12.924Z,12.8
2022-09-26T02:09:52.055Z,12.8
2022-09-26T02:11:02.886Z,12.8
2022-09-26T02:12:17.019Z,12.8
2022-09-26T02:13:31.110Z,12.8
2022-09-26T02:14:45.309Z,12.7
2022-09-26T02:15:59.379Z,12.7
2022-09-26T02:19:41.769Z,12.8
2022-09-26T02:20:55.936Z,12.7
2022-09-26T02:23:20.877Z,12.7
2022-09-26T02:27:00.060Z,12.8
2022-09-26T02:29:28.316Z,12.8
2022-09-26T02:30:42.382Z,12.8
2022-09-26T02:31:56.517Z,12.7
2022-09-26T02:33:10.656Z,12.7
2022-09-26T02:35:38.967Z,12.7
2022-09-26T02:38:00.638Z,12.7
2022-09-26T02:39:14.764Z,12.7
2022-09-26T02:40:28.943Z,12.7
2022-09-26T02:44:11.297Z,12.7
2022-09-26T02:45:25.417Z,12.7
2022-09-26T02:46:39.595Z,12.7
2022-09-26T02:47:53.709Z,12.7
2022-09-26T02:49:07.813Z,12.7
2022-09-26T02:50:18.675Z,12.7
2022-09-26T02:51:29.536Z,12.7
2022-09-26T02:52:43.703Z,12.7
2022-09-26T02:53:57.841Z,12.7
2022-09-26T02:57:40.208Z,12.7
2022-09-26T02:58:54.312Z,12.8
2022-09-26T03:00:08.469Z,12.8
2022-09-26T03:01:22.614Z,12.8
2022-09-26T03:02:36.703Z,12.8
2022-09-26T03:03:47.157Z,12.8
2022-09-26T03:04:57.972Z,12.9
2022-09-26T03:06:12.100Z,12.9
2022-09-26T03:07:26.223Z,12.9
2022-09-26T03:08:40.364Z,12.9
2022-09-26T03:09:54.540Z,12.9
2022-09-26T03:11:08.621Z,12.8
2022-09-26T03:12:22.747Z,12.9
2022-09-26T03:13:36.871Z,12.8
2022-09-26T03:14:51.034Z,12.9
2022-09-26T03:16:05.157Z,12.8
2022-09-26T03:17:16.025Z,12.8
2022-09-26T03:18:26.892Z,12.8
2022-09-26T03:19:41.025Z,12.8
2022-09-26T03:20:55.153Z,12.8
2022-09-26T03:22:09.341Z,12.8
2022-09-26T03:23:31.559Z,12.7
2022-09-26T03:25:59.885Z,12.7
2022-09-26T03:27:13.972Z,12.7
2022-09-26T03:28:28.114Z,12.7
2022-09-26T03:29:38.977Z,12.7
2022-09-26T03:30:49.858Z,12.7
2022-09-26T03:32:03.984Z,12.7
2022-09-26T03:34:32.241Z,12.7
2022-09-26T03:35:46.324Z,12.7
2022-09-26T03:37:00.443Z,12.7
2022-09-26T03:38:14.602Z,12.7
2022-09-26T03:40:51.072Z,12.7
2022-09-26T03:44:26.898Z,12.7
2022-09-26T03:45:41.123Z,12.7
2022-09-26T03:47:03.392Z,12.7
2022-09-26T03:49:31.584Z,12.7
2022-09-26T03:50:45.759Z,12.7
2022-09-26T03:51:59.965Z,12.7
2022-09-26T03:53:22.209Z,12.7
2022-09-26T03:54:33.090Z,12.7
2022-09-26T03:55:43.975Z,12.7
2022-09-26T03:56:58.038Z,12.7
2022-09-26T03:59:26.284Z,12.7
2022-09-26T04:00:40.433Z,12.7
2022-09-26T04:01:54.569Z,12.7
2022-09-26T04:03:08.724Z,12.7
2022-09-26T04:04:22.854Z,12.7
2022-09-26T04:06:51.091Z,12.7
2022-09-26T04:08:01.511Z,12.7
2022-09-26T04:10:26.495Z,12.7
2022-09-26T04:11:40.605Z,12.7
2022-09-26T04:12:54.781Z,12.7
2022-09-26T04:15:23.012Z,12.7
2022-09-26T04:16:37.156Z,12.6
2022-09-26T04:17:51.256Z,12.6
2022-09-26T04:19:05.371Z,12.6
2022-09-26T04:21:30.366Z,12.6
2022-09-26T04:22:41.244Z,12.6
2022-09-26T04:23:55.392Z,12.6
2022-09-26T04:25:09.503Z,12.6
2022-09-26T04:26:23.679Z,12.6
2022-09-26T04:27:37.775Z,12.6
2022-09-26T04:28:51.906Z,12.6
2022-09-26T04:31:20.137Z,12.6
2022-09-26T04:32:34.282Z,12.6
2022-09-26T04:33:48.417Z,12.6
2022-09-26T04:34:59.261Z,12.5
2022-09-26T04:36:10.157Z,12.6
2022-09-26T04:37:24.289Z,12.6
2022-09-26T04:39:52.501Z,12.6
2022-09-26T04:41:06.641Z,12.5
2022-09-26T04:43:34.902Z,12.5
2022-09-26T04:52:07.312Z,12.5
2022-09-26T04:53:21.453Z,12.5
2022-09-26T04:54:35.512Z,12.5
2022-09-26T04:58:17.943Z,12.5
2022-09-26T04:59:32.031Z,12.5
2022-09-26T05:00:46.151Z,12.5
2022-09-26T05:03:07.916Z,12.5
2022-09-26T05:04:22.028Z,12.5
2022-09-26T05:05:36.144Z,12.6
2022-09-26T05:06:50.326Z,12.6
2022-09-26T05:08:04.451Z,12.6
2022-09-26T05:10:32.723Z,12.5
2022-09-26T05:11:46.853Z,12.6
2022-09-26T05:13:00.949Z,12.6
2022-09-26T05:15:25.962Z,12.6
2022-09-26T05:16:36.372Z,12.5
2022-09-26T05:17:50.487Z,12.5
2022-09-26T05:19:04.635Z,12.5
2022-09-26T05:22:46.991Z,12.5
2022-09-26T05:25:15.273Z,12.5
2022-09-26T05:26:29.400Z,12.5
2022-09-26T05:27:43.551Z,12.5
2022-09-26T05:28:54.422Z,12.5
2022-09-26T05:30:05.280Z,12.4
2022-09-26T05:31:19.406Z,12.4
2022-09-26T05:32:33.506Z,12.4
2022-09-26T05:33:47.677Z,12.4
2022-09-26T05:36:15.870Z,12.4
2022-09-26T05:37:30.034Z,12.4
2022-09-26T05:38:44.159Z,12.4
2022-09-26T05:39:58.268Z,12.4
2022-09-26T05:41:12.397Z,12.4
2022-09-26T05:42:23.319Z,12.4
2022-09-26T05:43:34.171Z,12.4
2022-09-26T05:44:48.312Z,12.4
2022-09-26T05:46:02.423Z,12.4
2022-09-26T05:47:16.571Z,12.4
2022-09-26T05:48:30.631Z,12.4
2022-09-26T05:49:44.754Z,12.4
2022-09-26T05:52:21.270Z,12.4
2022-09-26T05:54:46.248Z,12.3
2022-09-26T05:55:57.106Z,12.4
2022-09-26T05:59:39.474Z,12.4
2022-09-26T06:00:53.634Z,12.4
2022-09-26T06:02:07.746Z,12.4
2022-09-26T06:03:21.866Z,12.4
2022-09-26T06:05:50.111Z,12.4
2022-09-26T06:07:04.256Z,12.5
2022-09-26T06:08:15.143Z,12.5
2022-09-26T06:09:25.551Z,12.5
2022-09-26T06:10:39.665Z,12.5
2022-09-26T06:13:07.936Z,12.5
2022-09-26T06:16:50.338Z,12.5
2022-09-26T06:18:04.415Z,12.5
2022-09-26T06:19:18.560Z,12.5
2022-09-26T06:20:32.682Z,12.6
2022-09-26T06:21:43.597Z,12.6
2022-09-26T06:24:08.573Z,12.6
2022-09-26T06:25:22.666Z,12.6
2022-09-26T06:26:36.821Z,12.7
2022-09-26T06:27:50.912Z,12.7
2022-09-26T06:30:19.187Z,12.7
2022-09-26T06:32:47.438Z,12.7
2022-09-26T06:35:12.446Z,12.7
2022-09-26T06:36:23.357Z,12.7
2022-09-26T06:37:37.427Z,12.8
2022-09-26T06:38:51.563Z,12.8
2022-09-26T06:40:05.729Z,12.8
2022-09-26T06:41:19.852Z,12.8
2022-09-26T06:42:33.982Z,12.8
2022-09-26T06:43:48.114Z,12.9
2022-09-26T06:45:02.201Z,12.9
2022-09-26T06:46:16.369Z,12.9
2022-09-26T06:48:41.322Z,13
2022-09-26T06:49:52.198Z,13
2022-09-26T06:51:06.372Z,13
2022-09-26T06:52:20.429Z,13
2022-09-26T06:53:34.568Z,13
2022-09-26T06:54:48.723Z,13.1
2022-09-26T06:56:02.876Z,13.1
2022-09-26T06:58:31.078Z,13.1
2022-09-26T07:00:59.349Z,13.1
2022-09-26T07:03:20.693Z,13.1
2022-09-26T07:04:34.822Z,13.2
2022-09-26T07:05:48.894Z,13.1
2022-09-26T07:08:17.169Z,13.2
2022-09-26T07:09:31.335Z,13.2
2022-09-26T07:10:45.455Z,13.2
2022-09-26T07:13:13.699Z,13.2
2022-09-26T07:14:27.797Z,13.3
2022-09-26T07:15:38.702Z,13.2
2022-09-26T07:18:03.636Z,13.3
2022-09-26T07:19:17.809Z,13.3
2022-09-26T07:20:31.934Z,13.3
2022-09-26T07:21:46.049Z,13.3
2022-09-26T07:23:00.190Z,13.3
2022-09-26T07:25:28.425Z,13.3
2022-09-26T07:26:42.609Z,13.3
2022-09-26T07:29:07.539Z,13.3
2022-09-26T07:30:18.427Z,13.3
2022-09-26T07:31:32.534Z,13.3
2022-09-26T07:34:00.844Z,13.3
2022-09-26T07:35:14.961Z,13.3
2022-09-26T07:37:43.203Z,13.3
2022-09-26T07:38:57.319Z,13.3
2022-09-26T07:41:25.597Z,13.4
2022-09-26T07:42:36.439Z,13.4
2022-09-26T07:43:47.294Z,13.4
2022-09-26T07:45:01.452Z,13.4
2022-09-26T07:46:15.538Z,13.4
2022-09-26T07:47:29.721Z,13.4
2022-09-26T07:48:43.863Z,13.4
2022-09-26T07:49:57.984Z,13.4
2022-09-26T07:52:26.239Z,13.5
2022-09-26T07:53:40.340Z,13.5
2022-09-26T07:54:54.437Z,13.5
2022-09-26T07:56:05.312Z,13.5
2022-09-26T08:00:58.550Z,13.5
2022-09-26T08:03:35.054Z,13.5
2022-09-26T08:06:03.316Z,13.5
2022-09-26T08:07:17.531Z,13.5
2022-09-26T08:10:53.377Z,13.5
2022-09-26T08:12:07.465Z,13.5
2022-09-26T08:13:21.640Z,13.5
2022-09-26T08:14:35.764Z,13.5
2022-09-26T08:15:49.859Z,13.5
2022-09-26T08:17:03.965Z,13.6
2022-09-26T08:18:18.097Z,13.6
2022-09-26T08:19:32.245Z,13.6
2022-09-26T08:20:46.398Z,13.6
2022-09-26T08:21:57.262Z,13.7
2022-09-26T08:24:21.818Z,13.7
2022-09-26T08:25:35.923Z,13.7
2022-09-26T08:28:04.197Z,13.7
2022-09-26T08:29:18.330Z,13.6
2022-09-26T08:30:32.416Z,13.6
2022-09-26T08:31:46.551Z,13.5
2022-09-26T08:35:25.700Z,13.5
2022-09-26T08:36:36.600Z,13.5
2022-09-26T08:42:47.184Z,13.4
2022-09-26T08:46:29.611Z,13.5
2022-09-26T08:47:43.744Z,13.5
2022-09-26T08:48:54.625Z,13.5
2022-09-26T08:51:19.568Z,13.4
2022-09-26T08:52:33.720Z,13.4
2022-09-26T08:55:02.005Z,13.4
2022-09-26T08:56:16.089Z,13.4
2022-09-26T08:58:44.353Z,13.4
2022-09-26T08:59:58.489Z,13.5
2022-09-26T09:02:23.530Z,13.5
2022-09-26T09:03:34.353Z,13.4
2022-09-26T09:04:48.519Z,13.4
2022-09-26T09:06:02.622Z,13.4
2022-09-26T09:10:59.127Z,13.3
2022-09-26T09:12:13.246Z,13.3
2022-09-26T09:13:27.354Z,13.3
2022-09-26T09:17:03.231Z,13.3
2022-09-26T09:18:17.341Z,13.3
2022-09-26T09:19:31.493Z,13.3
2022-09-26T09:20:45.628Z,13.3
2022-09-26T09:23:13.853Z,13.3
2022-09-26T09:24:28.029Z,13.2
2022-09-26T09:25:42.160Z,13.2
2022-09-26T09:26:56.242Z,13.2
2022-09-26T09:28:10.359Z,13.1
2022-09-26T09:29:21.230Z,13.1
2022-09-26T09:30:32.087Z,13.1
2022-09-26T09:31:46.266Z,13.1
2022-09-26T09:33:00.364Z,13.1
2022-09-26T09:34:14.511Z,13.1
2022-09-26T09:36:42.761Z,13
2022-09-26T09:39:11.033Z,13
2022-09-26T09:40:25.170Z,13
2022-09-26T09:41:39.276Z,13.1
2022-09-26T09:42:50.115Z,13.1
2022-09-26T09:44:01.048Z,13.1
2022-09-26T09:45:15.127Z,13
2022-09-26T09:47:43.351Z,13
2022-09-26T09:51:25.760Z,13
2022-09-26T09:52:39.901Z,13
2022-09-26T09:53:54.030Z,13
2022-09-26T09:56:18.987Z,13.1
2022-09-26T09:58:43.992Z,13.1
2022-09-26T09:59:58.129Z,13.1
2022-09-26T10:01:12.304Z,13.1
2022-09-26T10:02:26.398Z,13
2022-09-26T10:03:40.524Z,13.1
2022-09-26T10:04:54.669Z,13.1
2022-09-26T10:06:08.792Z,13.1
2022-09-26T10:07:22.945Z,13.1
2022-09-26T10:10:58.808Z,13.1
2022-09-26T10:12:12.901Z,13.1
2022-09-26T10:13:27.024Z,13.1
2022-09-26T10:15:55.276Z,13.2
2022-09-26T10:17:09.421Z,13.2
2022-09-26T10:18:23.560Z,13.2
2022-09-26T10:19:37.649Z,13.2
2022-09-26T10:22:05.941Z,13.2
2022-09-26T10:24:27.623Z,13.3
2022-09-26T10:25:41.799Z,13.2
2022-09-26T10:28:10.021Z,13.2
2022-09-26T10:29:24.190Z,13.2
2022-09-26T10:31:52.457Z,13.3
2022-09-26T10:33:06.555Z,13.3
2022-09-26T10:34:20.691Z,13.3
2022-09-26T10:35:34.785Z,13.3
2022-09-26T10:36:45.643Z,13.3
2022-09-26T10:37:56.571Z,13.3
2022-09-26T10:40:24.774Z,13.3
2022-09-26T10:41:38.907Z,13.3
2022-09-26T10:42:53.016Z,13.2
2022-09-26T10:44:07.211Z,13.2
2022-09-26T10:45:21.328Z,13.2
2022-09-26T10:46:35.451Z,13.3
2022-09-26T10:47:49.537Z,13.2
2022-09-26T10:50:14.557Z,13.3
2022-09-26T10:51:25.404Z,13.2
2022-09-26T10:52:39.537Z,13.2
2022-09-26T10:55:07.804Z,13.2
2022-09-26T10:56:21.953Z,13.2
2022-09-26T10:57:36.069Z,13.2
2022-09-26T10:58:50.168Z,13.2
2022-09-26T11:00:04.351Z,13.2
2022-09-26T11:01:18.454Z,13.2
2022-09-26T11:02:32.559Z,13.2
2022-09-26T11:03:43.475Z,13.2
2022-09-26T11:04:54.333Z,13.2
2022-09-26T11:06:08.447Z,13.2
2022-09-26T11:07:22.540Z,13.2
2022-09-26T11:08:36.667Z,13.3
2022-09-26T11:09:50.827Z,13.3
2022-09-26T11:12:19.100Z,13.3
2022-09-26T11:13:33.223Z,13.4
2022-09-26T11:14:47.301Z,13.4
2022-09-26T11:16:01.436Z,13.4
2022-09-26T11:17:11.900Z,13.4
2022-09-26T11:18:22.737Z,13.5
2022-09-26T11:19:36.916Z,13.5
2022-09-26T11:20:51.021Z,13.5
2022-09-26T11:24:41.603Z,13.6
2022-09-26T11:25:55.695Z,13.6
2022-09-26T11:27:09.829Z,13.6
2022-09-26T11:30:45.679Z,13.6
2022-09-26T11:31:59.837Z,13.6
2022-09-26T11:33:13.981Z,13.7
2022-09-26T11:34:28.083Z,13.7
2022-09-26T11:35:42.187Z,13.7
2022-09-26T11:36:56.360Z,13.7
2022-09-26T11:38:10.460Z,13.7
2022-09-26T11:39:24.585Z,13.8
2022-09-26T11:40:38.725Z,13.8
2022-09-26T11:43:03.733Z,13.9
2022-09-26T11:44:14.631Z,13.9
2022-09-26T11:45:28.713Z,13.9
2022-09-26T11:49:11.097Z,14
2022-09-26T11:50:25.274Z,14
2022-09-26T11:52:53.525Z,14.1
2022-09-26T11:54:07.649Z,14.1
2022-09-26T11:55:21.755Z,14.2
2022-09-26T11:56:32.600Z,14.2
2022-09-26T11:57:43.477Z,14.2
2022-09-26T11:58:57.624Z,14.2
2022-09-26T12:01:25.849Z,14.3
2022-09-26T12:02:39.964Z,14.3
2022-09-26T12:03:54.141Z,14.3
2022-09-26T12:05:08.217Z,14.3
2022-09-26T12:06:22.408Z,14.3
2022-09-26T12:07:36.476Z,14.3
2022-09-26T12:10:01.505Z,14.3
2022-09-26T12:11:12.363Z,14.3
2022-09-26T12:13:40.645Z,14.3
2022-09-26T12:16:17.072Z,14.3
2022-09-26T12:17:31.202Z,14.3
2022-09-26T12:19:59.446Z,14.3
2022-09-26T12:21:13.654Z,14.3
2022-09-26T12:22:24.527Z,14.3
2022-09-26T12:23:35.409Z,14.3
2022-09-26T12:24:49.540Z,14.3
2022-09-26T12:26:03.648Z,14.3
2022-09-26T12:27:17.801Z,14.3
2022-09-26T12:28:31.877Z,14.3
2022-09-26T12:31:00.199Z,14.2
2022-09-26T12:32:14.261Z,14.3
2022-09-26T12:33:28.449Z,14.2
2022-09-26T12:34:42.578Z,14.2
2022-09-26T12:38:18.400Z,14.2
2022-09-26T12:40:46.642Z,14.2
2022-09-26T12:42:00.798Z,14.2
2022-09-26T12:43:14.896Z,14.2
2022-09-26T12:44:29.023Z,14.2
2022-09-26T12:45:43.202Z,14.2
2022-09-26T12:49:22.304Z,14.2
2022-09-26T12:50:33.161Z,14.2
2022-09-26T12:51:47.274Z,14.2
2022-09-26T12:53:01.402Z,14.2
2022-09-26T12:54:15.520Z,14.2
2022-09-26T12:55:29.666Z,14.2
2022-09-26T12:57:57.970Z,14.2
2022-09-26T13:00:26.215Z,14.2
2022-09-26T13:01:40.342Z,14.2
2022-09-26T13:02:51.213Z,14.2
2022-09-26T13:04:02.082Z,14.2
2022-09-26T13:05:16.168Z,14.2
2022-09-26T13:06:30.311Z,14.2
2022-09-26T13:08:58.552Z,14.2
2022-09-26T13:10:12.680Z,14.2
2022-09-26T13:11:26.852Z,14.1
2022-09-26T13:13:55.060Z,14.1
2022-09-26T13:15:09.241Z,14.1
2022-09-26T13:16:20.058Z,14
2022-09-26T13:17:30.905Z,14
2022-09-26T13:18:45.045Z,13.9
2022-09-26T13:19:59.192Z,13.9
2022-09-26T13:21:13.357Z,13.9
2022-09-26T13:23:41.584Z,13.9
2022-09-26T13:24:55.699Z,13.9
2022-09-26T13:26:09.861Z,13.9
2022-09-26T13:27:23.938Z,13.9
2022-09-26T13:29:48.989Z,13.9
2022-09-26T13:30:59.802Z,13.8
2022-09-26T13:32:13.964Z,13.8
2022-09-26T13:33:28.088Z,13.8
2022-09-26T13:34:42.237Z,13.8
2022-09-26T13:35:56.316Z,13.7
2022-09-26T13:37:10.428Z,13.7
2022-09-26T13:38:24.580Z,13.7
2022-09-26T13:39:38.749Z,13.7
2022-09-26T13:42:06.947Z,13.7
2022-09-26T13:44:28.307Z,13.6
2022-09-26T13:45:42.432Z,13.6
2022-09-26T13:50:38.881Z,13.6
2022-09-26T13:51:53.019Z,13.6
2022-09-26T13:53:07.150Z,13.6
2022-09-26T13:54:21.304Z,13.6
2022-09-26T13:55:35.421Z,13.6
2022-09-26T13:56:46.308Z,13.6
2022-09-26T13:57:57.161Z,13.6
2022-09-26T13:59:11.246Z,13.6
2022-09-26T14:00:25.413Z,13.6
2022-09-26T14:01:39.557Z,13.6
2022-09-26T14:02:53.684Z,13.6
2022-09-26T14:04:07.837Z,13.6
2022-09-26T14:05:21.956Z,13.6
2022-09-26T14:06:36.092Z,13.6
2022-09-26T14:07:50.180Z,13.6
2022-09-26T14:09:04.333Z,13.6
2022-09-26T14:10:15.191Z,13.7
2022-09-26T14:11:26.014Z,13.7
2022-09-26T14:12:40.200Z,13.7
2022-09-26T14:13:54.334Z,13.7
2022-09-26T14:15:08.435Z,13.7
2022-09-26T14:16:22.632Z,13.7
2022-09-26T14:17:44.887Z,13.6
2022-09-26T14:18:59.008Z,13.6
2022-09-26T14:20:13.148Z,13.5
2022-09-26T14:21:27.287Z,13.5
2022-09-26T14:22:38.128Z,13.5
2022-09-26T14:23:49.008Z,13.5
2022-09-26T14:25:03.154Z,13.5
2022-09-26T14:26:17.254Z,13.5
2022-09-26T14:27:31.381Z,13.5
2022-09-26T14:28:45.490Z,13.4
2022-09-26T14:29:59.657Z,13.4
2022-09-26T14:31:13.857Z,13.4
2022-09-26T14:32:36.077Z,13.4
2022-09-26T14:33:50.177Z,13.4
2022-09-26T14:36:11.902Z,13.4
2022-09-26T14:37:26.084Z,13.4
2022-09-26T14:38:40.218Z,13.4
2022-09-26T14:39:54.328Z,13.4
2022-09-26T14:42:22.568Z,13.3
2022-09-26T14:43:36.707Z,13.3
2022-09-26T14:44:50.850Z,13.3
2022-09-26T14:46:04.942Z,13.3
2022-09-26T14:47:19.200Z,13.3
2022-09-26T14:49:40.477Z,13.3
2022-09-26T14:50:54.565Z,13.3
2022-09-26T14:52:08.725Z,13.3
2022-09-26T14:53:22.863Z,13.3
2022-09-26T14:54:36.989Z,13.2
2022-09-26T14:55:51.138Z,13.2
2022-09-26T14:57:05.258Z,13.3
2022-09-26T14:58:19.345Z,13.3
2022-09-26T14:59:33.501Z,13.3
2022-09-26T15:00:47.614Z,13.3
2022-09-26T15:01:58.209Z,13.2
2022-09-26T15:04:22.767Z,13.2
2022-09-26T15:06:51.037Z,13.2
2022-09-26T15:08:05.182Z,13.2
2022-09-26T15:09:19.335Z,13.3
2022-09-26T15:10:33.431Z,13.3
2022-09-26T15:14:15.796Z,13.2
2022-09-26T15:15:29.935Z,13.2
2022-09-26T15:16:40.795Z,13.3
2022-09-26T15:17:51.644Z,13.3
2022-09-26T15:19:05.808Z,13.3
2022-09-26T15:20:20.034Z,13.3
2022-09-26T15:21:42.269Z,13.3
2022-09-26T15:24:10.496Z,13.3
2022-09-26T15:25:24.642Z,13.3
2022-09-26T15:26:38.793Z,13.3
2022-09-26T15:27:52.913Z,13.3
2022-09-26T15:29:03.750Z,13.3
2022-09-26T15:30:14.636Z,13.4
2022-09-26T15:31:28.725Z,13.3
2022-09-26T15:32:42.896Z,13.3
2022-09-26T15:33:56.989Z,13.4
2022-09-26T15:35:11.163Z,13.4
2022-09-26T15:37:39.370Z,13.3
2022-09-26T15:38:53.621Z,13.3
2022-09-26T15:40:15.834Z,13.4
2022-09-26T15:41:26.675Z,13.4
2022-09-26T15:45:05.788Z,13.4
2022-09-26T15:46:19.953Z,13.3
2022-09-26T15:47:34.048Z,13.4
2022-09-26T15:48:48.182Z,13.3
2022-09-26T15:50:02.321Z,13.3
2022-09-26T15:51:16.488Z,13.3
2022-09-26T15:52:30.578Z,13.3
2022-09-26T15:53:44.703Z,13.3
2022-09-26T15:56:06.487Z,13.3
2022-09-26T15:57:20.561Z,13.3
2022-09-26T15:58:34.674Z,13.3
2022-09-26T15:59:48.859Z,13.3
2022-09-26T16:01:02.933Z,13.3
2022-09-26T16:02:17.098Z,13.3
2022-09-26T16:03:31.219Z,13.3
2022-09-26T16:04:45.319Z,13.3
2022-09-26T16:07:13.609Z,13.3
2022-09-26T16:09:35.355Z,13.3
2022-09-26T16:12:03.561Z,13.3
2022-09-26T16:13:17.689Z,13.3
2022-09-26T16:14:31.864Z,13.3
2022-09-26T16:15:45.968Z,13.3
2022-09-26T16:17:00.111Z,13.2
2022-09-26T16:18:14.196Z,13.2
2022-09-26T16:19:28.383Z,13.2
2022-09-26T16:20:42.465Z,13.2
2022-09-26T16:21:53.385Z,13.2
2022-09-26T16:23:04.208Z,13.2
2022-09-26T16:24:18.376Z,13.2
2022-09-26T16:25:32.471Z,13.2
2022-09-26T16:26:46.585Z,13.1
2022-09-26T16:28:00.815Z,13.1
2022-09-26T16:29:23.047Z,13.1
2022-09-26T16:31:51.317Z,13.1
2022-09-26T16:33:05.446Z,13.1
2022-09-26T16:34:16.269Z,13.1
2022-09-26T16:36:41.304Z,13.1
2022-09-26T16:37:55.447Z,13.1
2022-09-26T16:39:09.567Z,13.1
2022-09-26T16:40:23.684Z,13
2022-09-26T16:41:37.781Z,13
2022-09-26T16:42:51.948Z,13
2022-09-26T16:44:06.060Z,13
2022-09-26T16:45:20.160Z,13
2022-09-26T16:46:34.320Z,13
2022-09-26T16:47:45.181Z,13
2022-09-26T16:50:10.190Z,13
2022-09-26T16:51:24.316Z,13
2022-09-26T16:55:06.741Z,13
2022-09-26T16:57:34.920Z,13
2022-09-26T16:58:49.099Z,13
2022-09-26T17:00:03.231Z,13
2022-09-26T17:02:24.959Z,12.9
2022-09-26T17:04:53.215Z,12.9
2022-09-26T17:06:07.356Z,12.9
2022-09-26T17:07:21.440Z,13
2022-09-26T17:08:35.588Z,12.9
2022-09-26T17:09:49.739Z,12.9
2022-09-26T17:11:03.854Z,12.9
2022-09-26T17:12:17.934Z,12.9
2022-09-26T17:13:32.091Z,12.9
2022-09-26T17:14:42.960Z,12.9
2022-09-26T17:15:53.412Z,12.9
2022-09-26T17:17:07.505Z,12.9
2022-09-26T17:18:21.641Z,12.9
2022-09-26T17:19:35.742Z,12.9
2022-09-26T17:20:49.898Z,12.9
2022-09-26T17:22:04.073Z,12.9
2022-09-26T17:24:32.295Z,12.9
2022-09-26T17:25:46.415Z,12.9
2022-09-26T17:27:00.550Z,12.9
2022-09-26T17:28:11.410Z,12.9
2022-09-26T17:29:22.271Z,12.9
2022-09-26T17:30:36.380Z,12.9
2022-09-26T17:31:50.650Z,12.9
2022-09-26T17:33:12.883Z,12.9
2022-09-26T17:34:27.010Z,12.8
2022-09-26T17:35:41.112Z,12.8
2022-09-26T17:36:55.219Z,12.8
2022-09-26T17:38:09.404Z,12.8
2022-09-26T17:39:23.519Z,12.8
2022-09-26T17:40:34.393Z,12.8
2022-09-26T17:41:45.210Z,12.7
2022-09-26T17:42:59.341Z,12.8
2022-09-26T17:44:13.476Z,12.7
2022-09-26T17:45:27.663Z,12.7
2022-09-26T17:46:49.897Z,12.7
2022-09-26T17:48:04.086Z,12.7
2022-09-26T17:49:18.190Z,12.7
2022-09-26T17:50:32.342Z,12.7
2022-09-26T17:51:46.415Z,12.8
2022-09-26T17:54:08.162Z,12.7
2022-09-26T17:55:22.290Z,12.7
2022-09-26T17:56:36.425Z,12.8
2022-09-26T17:57:50.583Z,12.8
2022-09-26T17:59:04.679Z,12.8
2022-09-26T18:00:18.821Z,12.8
2022-09-26T18:01:32.965Z,12.8
2022-09-26T18:02:47.085Z,12.8
2022-09-26T18:04:01.208Z,12.7
2022-09-26T18:05:15.324Z,12.7
2022-09-26T18:07:37.068Z,12.7
2022-09-26T18:08:51.286Z,12.7
2022-09-26T18:10:13.498Z,12.7
2022-09-26T18:11:27.616Z,12.7
2022-09-26T18:12:41.742Z,12.7
2022-09-26T18:13:55.933Z,12.7
2022-09-26T18:15:10.046Z,12.7
2022-09-26T18:16:24.162Z,12.8
2022-09-26T18:17:38.287Z,12.8
2022-09-26T18:18:49.154Z,12.8
2022-09-26T18:19:59.998Z,12.8
2022-09-26T18:21:14.106Z,12.7
2022-09-26T18:22:28.325Z,12.7
2022-09-26T18:23:50.568Z,12.7
2022-09-26T18:26:18.870Z,12.7
2022-09-26T18:27:32.956Z,12.7
2022-09-26T18:30:01.207Z,12.6
2022-09-26T18:31:12.082Z,12.6
2022-09-26T18:32:22.953Z,12.6
2022-09-26T18:34:51.237Z,12.6
2022-09-26T18:37:19.508Z,12.6
2022-09-26T18:38:33.605Z,12.6
2022-09-26T18:39:47.710Z,12.6
2022-09-26T18:41:01.914Z,12.6
2022-09-26T18:42:24.141Z,12.6
2022-09-26T18:43:35.026Z,12.6
2022-09-26T18:44:45.878Z,12.6
2022-09-26T18:45:59.998Z,12.6
2022-09-26T18:47:14.125Z,12.7
2022-09-26T18:48:28.310Z,12.7
2022-09-26T18:50:56.528Z,12.7
2022-09-26T18:52:10.715Z,12.7
2022-09-26T18:53:24.843Z,12.7
2022-09-26T18:55:53.083Z,12.7
2022-09-26T18:58:14.505Z,12.7
2022-09-26T18:59:28.751Z,12.7
2022-09-26T19:00:50.997Z,12.7
2022-09-26T19:02:05.074Z,12.8
2022-09-26T19:03:19.248Z,12.7
2022-09-26T19:04:33.383Z,12.7
2022-09-26T19:05:47.449Z,12.7
2022-09-26T19:07:01.634Z,12.8
2022-09-26T19:10:43.963Z,12.7
2022-09-26T19:13:05.713Z,12.8
2022-09-26T19:16:48.140Z,12.8
2022-09-26T19:19:16.369Z,12.8
2022-09-26T19:20:30.499Z,12.8
2022-09-26T19:21:44.604Z,12.8
2022-09-26T19:22:58.796Z,12.8
2022-09-26T19:24:12.903Z,12.8
2022-09-26T19:25:23.717Z,12.8
2022-09-26T19:26:34.600Z,12.8
2022-09-26T19:27:48.781Z,12.8
2022-09-26T19:29:02.841Z,12.8
2022-09-26T19:31:31.125Z,12.8
2022-09-26T19:33:59.417Z,12.8
2022-09-26T19:35:13.534Z,12.8
2022-09-26T19:36:27.652Z,12.8
2022-09-26T19:37:41.748Z,12.8
2022-09-26T19:38:52.654Z,12.8
2022-09-26T19:41:17.597Z,12.8
2022-09-26T19:42:31.759Z,12.8
2022-09-26T19:43:45.897Z,12.7
2022-09-26T19:44:59.988Z,12.7
2022-09-26T19:46:14.179Z,12.7
2022-09-26T19:48:42.395Z,12.8
2022-09-26T19:51:10.670Z,12.8
2022-09-26T19:52:21.559Z,12.8
2022-09-26T19:53:31.929Z,12.8
2022-09-26T19:56:00.192Z,12.8
2022-09-26T19:57:14.377Z,12.8
2022-09-26T19:58:28.481Z,12.8
2022-09-26T20:00:56.764Z,12.8
2022-09-26T20:02:10.838Z,12.8
2022-09-26T20:03:24.974Z,12.7
2022-09-26T20:04:39.103Z,12.7
2022-09-26T20:07:00.874Z,12.7
2022-09-26T20:08:14.986Z,12.7
2022-09-26T20:09:29.068Z,12.7
2022-09-26T20:10:43.210Z,12.7
2022-09-26T20:11:57.384Z,12.7
2022-09-26T20:13:11.477Z,12.7
2022-09-26T20:14:25.622Z,12.6
2022-09-26T20:15:39.773Z,12.6
2022-09-26T20:16:53.897Z,12.6
2022-09-26T20:20:29.737Z,12.6
2022-09-26T20:21:43.859Z,12.6
2022-09-26T20:24:12.100Z,12.6
2022-09-26T20:25:26.248Z,12.6
2022-09-26T20:26:40.382Z,12.7
2022-09-26T20:27:54.494Z,12.7
2022-09-26T20:29:08.598Z,12.7
2022-09-26T20:30:22.762Z,12.7
2022-09-26T20:31:36.876Z,12.7
2022-09-26T20:32:47.731Z,12.7
2022-09-26T20:33:58.641Z,12.7
2022-09-26T20:35:12.710Z,12.7
2022-09-26T20:36:26.951Z,12.7
2022-09-26T20:37:49.194Z,12.7
2022-09-26T20:39:03.300Z,12.7
2022-09-26T20:41:31.607Z,12.7
2022-09-26T20:45:10.665Z,12.7
2022-09-26T20:46:21.572Z,12.7
2022-09-26T20:50:03.935Z,12.7
2022-09-26T20:51:18.100Z,12.7
2022-09-26T20:52:32.210Z,12.7
2022-09-26T20:53:46.325Z,12.7
2022-09-26T20:55:00.426Z,12.7
2022-09-26T20:56:14.588Z,12.7
2022-09-26T20:58:39.634Z,12.7
2022-09-26T20:59:50.471Z,12.7
2022-09-26T21:01:04.613Z,12.7
2022-09-26T21:02:18.676Z,12.7